Time;durP1;ratioP1;P1;durP2;ratioP2;P2;SDS_P1;SDS_P2;PMS_P1;PMS_P2;Temp;Humidity;BMP_temperature;BMP_pressure;BME280_temperature;BME280_humidity;BME280_pressure;Samples;Min_cycle;Max_cycle;Signal;HPM_P1;HPM_P2
2022/10/16 00:00:04;;;;;;;12.90;8.50;;;;;;;3.82;85.57;102008.29;105595;1260;73290;-73
2022/10/16 00:02:53;;;;;;;14.40;8.20;;;;;;;3.83;85.39;102011.56;105585;1261;63005;-72
2022/10/16 00:05:21;;;;;;;16.00;8.80;;;;;;;3.79;85.63;102011.80;105550;1267;70770;-73
2022/10/16 00:07:50;;;;;;;14.00;8.00;;;;;;;3.76;85.76;102015.86;105539;1275;63818;-75
2022/10/16 00:10:19;;;;;;;13.00;7.20;;;;;;;3.70;85.75;102014.26;105424;1270;61981;-75
2022/10/16 00:12:48;;;;;;;15.30;8.10;;;;;;;3.66;85.79;102015.55;105552;1262;60696;-72
2022/10/16 00:15:17;;;;;;;14.20;8.20;;;;;;;3.61;86.04;102015.49;105601;1266;72520;-71
2022/10/16 00:17:46;;;;;;;12.60;8.10;;;;;;;3.57;86.23;102010.77;105575;1266;61076;-73
2022/10/16 00:20:14;;;;;;;14.00;8.40;;;;;;;3.51;86.76;102009.85;105500;1267;70774;-72
2022/10/16 00:22:43;;;;;;;11.60;8.60;;;;;;;3.50;86.91;102010.92;105457;1265;71995;-73
2022/10/16 00:25:12;;;;;;;11.90;7.80;;;;;;;3.47;87.02;102008.92;105550;1265;59036;-72
2022/10/16 00:27:41;;;;;;;13.90;7.80;;;;;;;3.43;87.31;102011.23;105577;1274;59506;-71
2022/10/16 00:30:11;;;;;;;10.50;7.60;;;;;;;3.40;86.96;102013.20;105483;1274;64359;-70
2022/10/16 00:32:39;;;;;;;14.80;8.30;;;;;;;3.37;87.57;102011.20;105567;1265;72981;-77
2022/10/16 00:35:08;;;;;;;15.30;7.90;;;;;;;3.33;87.75;102013.18;105649;1267;60827;-90
2022/10/16 00:37:37;;;;;;;11.90;7.20;;;;;;;3.29;87.76;102013.45;105597;1263;71919;-84
2022/10/16 00:40:06;;;;;;;13.50;8.30;;;;;;;3.27;87.66;102016.25;105488;1266;61730;-77
2022/10/16 00:42:35;;;;;;;12.10;7.80;;;;;;;3.24;87.88;102015.97;105675;1270;59054;-77
2022/10/16 00:45:05;;;;;;;11.70;7.50;;;;;;;3.19;88.27;102015.88;105614;1259;72476;-78
2022/10/16 00:47:47;;;;;;;12.50;7.80;;;;;;;3.14;88.63;102021.66;105595;1266;71997;-77
2022/10/16 00:50:33;;;;;;;10.60;7.60;;;;;;;3.10;88.70;102025.71;105692;1270;61298;-79
2022/10/16 00:53:03;;;;;;;14.00;8.50;;;;;;;3.05;88.78;102021.17;105710;1275;73742;-78
2022/10/16 00:55:31;;;;;;;11.80;7.20;;;;;;;3.00;88.99;102020.25;105541;1267;62445;-78
2022/10/16 00:58:00;;;;;;;11.50;7.20;;;;;;;2.97;89.20;102019.45;105632;1270;57530;-79
2022/10/16 01:00:29;;;;;;;11.00;7.10;;;;;;;2.95;89.02;102023.45;105604;1268;72873;-78
2022/10/16 01:03:01;;;;;;;12.00;7.50;;;;;;;2.91;89.51;102025.59;105491;1270;62306;-79
2022/10/16 01:05:44;;;;;;;11.90;7.50;;;;;;;2.88;89.82;102022.86;105588;1260;62696;-78
2022/10/16 01:08:32;;;;;;;12.40;7.90;;;;;;;2.88;90.04;102024.27;105465;1273;63628;-78
2022/10/16 01:11:23;;;;;;;13.00;7.80;;;;;;;2.86;89.75;102025.33;105521;1270;61122;-80
2022/10/16 01:14:01;;;;;;;13.00;7.70;;;;;;;2.87;90.34;102023.59;105369;1269;60649;-79
2022/10/16 01:16:59;;;;;;;10.90;7.40;;;;;;;2.87;89.82;102027.20;105516;1260;73780;-77
2022/10/16 01:20:07;;;;;;;14.40;8.10;;;;;;;2.87;89.75;102031.34;105495;1273;62236;-80
2022/10/16 01:23:04;;;;;;;11.20;7.30;;;;;;;2.84;89.54;102032.77;105495;1273;59217;-79
2022/10/16 01:26:09;;;;;;;10.30;7.00;;;;;;;2.80;89.52;102032.67;105384;1264;63389;-79
2022/10/16 01:29:11;;;;;;;14.90;7.70;;;;;;;2.76;89.49;102034.81;105347;1275;61256;-78
2022/10/16 01:31:44;;;;;;;10.90;7.90;;;;;;;2.73;89.77;102036.59;105393;1271;59129;-77
2022/10/16 01:34:24;;;;;;;13.60;8.80;;;;;;;2.72;90.22;102036.79;105382;1275;73487;-78
2022/10/16 01:37:02;;;;;;;14.70;8.50;;;;;;;2.68;89.67;102043.23;105457;1275;71878;-77
2022/10/16 01:39:35;;;;;;;12.00;8.20;;;;;;;2.65;90.43;102043.62;105466;1262;61023;-78
2022/10/16 01:42:20;;;;;;;11.60;8.40;;;;;;;2.68;90.34;102043.39;105508;1267;62385;-77
2022/10/16 01:44:52;;;;;;;10.50;7.30;;;;;;;2.77;89.77;102048.39;105615;1263;59766;-77
2022/10/16 01:47:25;;;;;;;11.90;7.90;;;;;;;2.73;89.21;102046.21;105573;1271;61127;-76
2022/10/16 01:49:57;;;;;;;13.50;8.70;;;;;;;2.68;89.10;102048.21;105626;1267;63252;-79
2022/10/16 01:52:29;;;;;;;11.30;7.70;;;;;;;2.66;89.16;102052.20;105617;1271;61503;-78
2022/10/16 01:55:00;;;;;;;14.90;8.70;;;;;;;2.60;89.50;102050.94;105639;1260;70382;-77
2022/10/16 01:57:32;;;;;;;15.00;8.60;;;;;;;2.56;89.59;102051.34;105649;1270;62871;-77
2022/10/16 02:00:11;;;;;;;16.10;9.20;;;;;;;2.52;90.05;102053.98;105528;1264;60296;-78
2022/10/16 02:02:48;;;;;;;16.20;8.50;;;;;;;2.49;90.43;102054.05;105497;1266;60772;-78
2022/10/16 02:05:29;;;;;;;13.80;8.40;;;;;;;2.49;90.54;102057.33;105607;1260;62735;-78
2022/10/16 02:07:58;;;;;;;12.40;8.40;;;;;;;2.48;91.04;102058.54;105506;1260;70296;-79
2022/10/16 02:10:33;;;;;;;11.40;7.60;;;;;;;2.47;90.74;102055.46;105295;1270;70774;-80
2022/10/16 02:13:23;;;;;;;12.40;8.20;;;;;;;2.46;90.94;102053.58;105490;1265;64480;-79
2022/10/16 02:15:52;;;;;;;11.10;8.30;;;;;;;2.51;90.63;102058.48;105456;1269;58740;-78
2022/10/16 02:18:22;;;;;;;13.90;8.40;;;;;;;2.54;89.82;102062.21;105472;1266;58821;-78
2022/10/16 02:21:02;;;;;;;17.70;9.60;;;;;;;2.51;89.74;102065.88;105395;1267;74364;-79
2022/10/16 02:24:06;;;;;;;14.50;8.50;;;;;;;2.49;90.38;102073.15;105457;1270;71892;-78
2022/10/16 02:26:59;;;;;;;;;;;;;;;2.46;90.51;102075.79;105373;1270;70806;-77
2022/10/16 02:29:28;;;;;;;13.80;9.60;;;;;;;2.44;90.38;102079.42;105491;1270;73640;-78
2022/10/16 02:32:03;;;;;;;15.40;9.40;;;;;;;2.45;90.45;102082.33;105421;1275;61612;-78
2022/10/16 02:34:34;;;;;;;14.70;10.00;;;;;;;2.43;90.31;102081.84;105405;1270;60623;-78
2022/10/16 02:37:05;;;;;;;18.90;9.70;;;;;;;2.42;90.59;102076.70;105202;1275;62151;-79
2022/10/16 02:39:34;;;;;;;13.60;8.80;;;;;;;2.40;90.62;102074.84;105353;1273;72008;-78
2022/10/16 02:42:03;;;;;;;13.00;9.80;;;;;;;2.44;90.12;102076.84;105405;1270;60394;-78
2022/10/16 02:44:31;;;;;;;18.90;10.10;;;;;;;2.40;90.66;102081.72;105727;1266;73628;-78
2022/10/16 02:47:00;;;;;;;18.20;11.20;;;;;;;2.36;90.60;102082.80;105739;1265;59108;-79
2022/10/16 02:49:29;;;;;;;14.40;10.40;;;;;;;2.36;91.24;102083.32;105728;1263;61096;-81
2022/10/16 02:51:57;;;;;;;16.00;10.00;;;;;;;2.33;91.41;102081.83;105685;1263;63258;-81
2022/10/16 02:54:26;;;;;;;14.80;9.10;;;;;;;2.36;90.74;102082.29;105676;1270;60847;-80
2022/10/16 02:56:54;;;;;;;16.70;10.30;;;;;;;2.33;90.29;102080.45;105653;1266;70384;-79
2022/10/16 02:59:23;;;;;;;14.00;9.80;;;;;;;2.27;90.35;102082.26;105694;1267;63554;-77
2022/10/16 03:01:51;;;;;;;19.10;10.20;;;;;;;2.23;91.01;102085.77;105677;1269;62041;-78
2022/10/16 03:04:20;;;;;;;16.60;10.00;;;;;;;2.20;91.13;102088.73;105773;1264;59160;-78
2022/10/16 03:06:49;;;;;;;16.70;10.40;;;;;;;2.19;91.11;102089.29;105744;1261;72784;-76
2022/10/16 03:09:17;;;;;;;16.80;10.90;;;;;;;2.15;90.93;102095.70;105743;1263;61835;-77
2022/10/16 03:11:46;;;;;;;22.40;11.70;;;;;;;2.11;91.58;102103.32;105717;1275;68759;-77
2022/10/16 03:14:14;;;;;;;20.40;12.20;;;;;;;2.13;91.78;102106.04;105402;1260;73634;-78
2022/10/16 03:16:44;;;;;;;20.00;11.50;;;;;;;2.11;91.12;102106.41;105483;1266;61682;-78
2022/10/16 03:19:12;;;;;;;20.40;11.60;;;;;;;2.15;91.11;102110.83;105671;1275;58768;-79
2022/10/16 03:21:41;;;;;;;22.00;12.70;;;;;;;2.11;90.76;102115.69;105718;1267;71819;-79
2022/10/16 03:24:09;;;;;;;20.00;11.70;;;;;;;2.08;91.89;102116.41;105790;1264;72107;-77
2022/10/16 03:26:38;;;;;;;17.90;11.90;;;;;;;2.07;92.42;102117.31;105781;1272;59659;-79
2022/10/16 03:29:07;;;;;;;21.60;12.60;;;;;;;2.05;92.93;102120.08;105826;1272;72399;-77
2022/10/16 03:31:37;;;;;;;16.80;11.40;;;;;;;2.07;92.69;102123.84;105992;1272;61678;-78
2022/10/16 03:34:06;;;;;;;20.30;12.00;;;;;;;2.08;91.84;102129.48;105914;1269;59434;-83
2022/10/16 03:36:35;;;;;;;19.20;11.60;;;;;;;2.08;92.43;102133.94;105726;1267;73876;-79
2022/10/16 03:39:03;;;;;;;17.60;11.90;;;;;;;2.08;92.33;102137.37;105806;1272;61835;-81
2022/10/16 03:41:32;;;;;;;21.50;12.20;;;;;;;2.07;92.37;102139.64;105774;1264;69662;-78
2022/10/16 03:44:00;;;;;;;21.00;12.10;;;;;;;2.06;92.07;102140.34;105690;1272;64324;-78
2022/10/16 03:46:29;;;;;;;20.60;11.70;;;;;;;2.03;91.40;102131.79;105767;1272;60821;-78
2022/10/16 03:48:57;;;;;;;21.80;12.90;;;;;;;2.00;91.26;102138.20;105725;1263;60089;-76
2022/10/16 03:51:26;;;;;;;19.30;12.40;;;;;;;1.99;91.45;102136.15;105752;1273;70593;-78
2022/10/16 03:53:55;;;;;;;20.10;13.10;;;;;;;1.95;91.11;102136.03;105955;1272;71411;-78
2022/10/16 03:56:23;;;;;;;22.00;12.60;;;;;;;2.02;90.60;102136.27;105731;1268;70394;-80
2022/10/16 03:58:52;;;;;;;21.60;12.10;;;;;;;2.00;90.52;102135.11;105602;1270;72224;-79
2022/10/16 04:01:20;;;;;;;18.90;11.40;;;;;;;1.97;90.70;102135.30;105704;1270;61238;-79
2022/10/16 04:03:49;;;;;;;18.30;11.90;;;;;;;1.92;91.28;102136.76;105717;1275;59988;-77
2022/10/16 04:06:18;;;;;;;16.40;11.10;;;;;;;1.86;91.24;102132.55;105646;1263;62136;-81
2022/10/16 04:08:46;;;;;;;16.80;12.30;;;;;;;1.81;91.41;102133.81;105575;1271;72071;-79
2022/10/16 04:11:15;;;;;;;17.70;10.20;;;;;;;1.78;92.07;102131.29;105665;1266;68263;-79
2022/10/16 04:13:44;;;;;;;16.40;12.00;;;;;;;1.80;91.64;102131.59;105693;1270;73142;-78
2022/10/16 04:16:12;;;;;;;21.90;13.20;;;;;;;1.80;92.06;102133.48;105626;1270;59983;-77
2022/10/16 04:18:41;;;;;;;23.20;13.20;;;;;;;1.76;91.96;102136.28;105675;1266;59564;-76
2022/10/16 04:21:10;;;;;;;21.20;12.70;;;;;;;1.76;92.36;102136.95;105389;1264;365137;-79
2022/10/16 04:23:38;;;;;;;18.20;12.50;;;;;;;1.78;91.96;102143.64;105664;1274;70505;-78
2022/10/16 04:26:07;;;;;;;18.50;12.60;;;;;;;1.79;92.52;102147.75;105662;1266;70445;-79
2022/10/16 04:28:36;;;;;;;19.90;11.70;;;;;;;1.77;92.75;102150.70;105678;1263;73530;-78
2022/10/16 04:31:06;;;;;;;19.40;11.70;;;;;;;1.75;92.48;102150.55;105688;1265;61121;-78
2022/10/16 04:33:35;;;;;;;20.10;13.20;;;;;;;1.77;92.35;102149.66;105745;1269;60067;-78
2022/10/16 04:36:04;;;;;;;23.20;13.50;;;;;;;1.76;92.09;102147.45;105701;1264;72858;-80
2022/10/16 04:38:33;;;;;;;20.10;14.10;;;;;;;1.76;92.04;102151.56;105534;1269;72273;-79
2022/10/16 04:41:01;;;;;;;25.00;15.20;;;;;;;1.73;92.21;102158.14;105646;1264;70678;-79
2022/10/16 04:43:30;;;;;;;25.50;17.50;;;;;;;1.71;92.08;102160.40;105688;1263;71357;-79
2022/10/16 04:45:59;;;;;;;28.50;18.80;;;;;;;1.68;91.89;102165.59;105601;1275;61984;-78
2022/10/16 04:48:28;;;;;;;30.70;18.30;;;;;;;1.66;92.71;102169.91;105585;1269;59867;-77
2022/10/16 04:50:56;;;;;;;29.40;18.60;;;;;;;1.66;92.90;102174.20;105573;1267;73387;-80
2022/10/16 04:53:25;;;;;;;26.40;17.70;;;;;;;1.67;93.23;102179.86;105522;1270;70885;-77
2022/10/16 04:55:54;;;;;;;27.20;18.20;;;;;;;1.68;92.84;102180.36;105602;1270;67798;-79
2022/10/16 04:58:23;;;;;;;25.70;16.70;;;;;;;1.71;92.63;102186.85;105540;1270;73762;-79
2022/10/16 05:00:52;;;;;;;30.60;19.60;;;;;;;1.76;92.11;102189.36;105652;1269;59616;-80
2022/10/16 05:03:21;;;;;;;26.70;17.80;;;;;;;1.86;92.09;102192.50;105681;1273;60381;-79
2022/10/16 05:05:49;;;;;;;31.70;17.60;;;;;;;1.92;91.67;102194.14;105596;1267;73354;-80
2022/10/16 05:08:18;;;;;;;27.80;17.30;;;;;;;1.96;91.73;102195.30;105647;1266;70623;-80
2022/10/16 05:10:46;;;;;;;28.40;17.40;;;;;;;2.02;91.77;102200.03;105697;1266;70796;-80
2022/10/16 05:13:15;;;;;;;22.50;15.40;;;;;;;2.10;91.25;102201.81;105806;1276;72230;-79
2022/10/16 05:15:48;;;;;;;27.90;15.80;;;;;;;2.18;91.25;102205.48;105825;1267;59623;-78
2022/10/16 05:18:17;;;;;;;26.70;15.90;;;;;;;2.28;90.71;102206.89;105909;1267;61186;-77
2022/10/16 05:20:45;;;;;;;25.70;15.20;;;;;;;2.41;89.99;102209.80;105774;1275;72740;-77
2022/10/16 05:23:14;;;;;;;22.60;14.20;;;;;;;2.54;89.80;102214.42;105805;1263;69352;-78
2022/10/16 05:25:43;;;;;;;29.90;14.80;;;;;;;2.65;89.77;102213.23;105724;1265;69617;-81
2022/10/16 05:28:11;;;;;;;30.60;15.10;;;;;;;2.78;88.83;102216.29;105634;1261;63475;-81
2022/10/16 05:30:40;;;;;;;29.60;15.10;;;;;;;2.87;88.33;102219.42;105648;1265;59649;-81
2022/10/16 05:33:08;;;;;;;26.00;18.50;;;;;;;3.01;87.64;102225.73;105639;1275;61132;-82
2022/10/16 05:35:37;;;;;;;40.40;24.50;;;;;;;3.14;87.09;102230.67;105755;1269;63499;-79
2022/10/16 05:38:05;;;;;;;36.00;24.20;;;;;;;3.25;86.70;102231.50;105644;1276;72076;-79
2022/10/16 05:40:35;;;;;;;45.70;26.70;;;;;;;3.37;85.77;102235.78;105754;1263;60298;-78
2022/10/16 05:43:03;;;;;;;35.50;23.40;;;;;;;3.50;85.28;102233.98;105709;1267;64204;-79
2022/10/16 05:45:32;;;;;;;37.10;24.80;;;;;;;3.64;84.71;102236.47;105745;1273;58949;-78
2022/10/16 05:48:01;;;;;;;37.50;26.60;;;;;;;3.79;84.11;102239.98;105515;1270;60165;-80
2022/10/16 05:50:29;;;;;;;43.80;27.60;;;;;;;3.92;83.65;102240.56;105594;1274;72385;-80
2022/10/16 05:52:58;;;;;;;55.40;37.20;;;;;;;4.06;82.28;102239.44;105651;1256;70766;-81
2022/10/16 05:55:26;;;;;;;48.40;32.00;;;;;;;4.16;82.31;102244.90;105627;1276;70028;-78
2022/10/16 05:57:55;;;;;;;40.90;28.20;;;;;;;4.27;81.59;102246.40;105711;1276;63207;-79
2022/10/16 06:00:23;;;;;;;43.10;26.80;;;;;;;4.34;81.05;102251.60;105672;1263;61656;-80
2022/10/16 06:02:53;;;;;;;40.00;25.20;;;;;;;4.44;80.59;102256.20;105715;1273;58509;-82
2022/10/16 06:05:22;;;;;;;35.90;23.50;;;;;;;4.60;79.93;102252.39;105569;1266;74459;-82
2022/10/16 06:07:50;;;;;;;38.60;23.00;;;;;;;4.70;79.67;102254.05;105699;1264;71864;-76
2022/10/16 06:10:19;;;;;;;33.30;20.80;;;;;;;4.82;78.82;102256.52;105580;1267;70083;-77
2022/10/16 06:12:47;;;;;;;29.10;19.70;;;;;;;4.94;78.94;102258.13;105592;1276;74294;-81
2022/10/16 06:15:16;;;;;;;31.30;19.70;;;;;;;5.04;78.23;102256.19;105484;1276;57541;-78
2022/10/16 06:17:45;;;;;;;29.00;19.40;;;;;;;5.19;77.73;102259.09;105575;1263;60975;-78
2022/10/16 06:20:13;;;;;;;26.20;18.10;;;;;;;5.28;77.44;102259.89;105471;1276;62641;-79
2022/10/16 06:22:42;;;;;;;24.30;15.60;;;;;;;5.41;76.76;102265.94;105687;1267;61605;-79
2022/10/16 06:25:10;;;;;;;28.80;16.40;;;;;;;5.53;76.05;102265.27;105557;1264;70327;-79
2022/10/16 06:27:40;;;;;;;22.50;14.10;;;;;;;5.66;75.54;102267.15;105674;1276;62820;-81
2022/10/16 06:30:10;;;;;;;26.60;17.10;;;;;;;5.77;75.60;102271.53;105645;1276;58066;-84
2022/10/16 06:32:39;;;;;;;26.60;15.00;;;;;;;5.87;74.78;102280.26;105615;1266;59101;-84
2022/10/16 06:35:08;;;;;;;27.40;14.90;;;;;;;6.02;74.15;102282.30;105708;1263;73574;-84
2022/10/16 06:37:37;;;;;;;20.30;14.00;;;;;;;6.11;74.04;102284.27;105775;1269;61529;-83
2022/10/16 06:40:07;;;;;;;22.90;13.50;;;;;;;6.22;73.43;102282.77;105665;1275;59180;-82
2022/10/16 06:42:36;;;;;;;28.00;15.70;;;;;;;6.37;73.83;102286.82;106096;1263;73746;-87
2022/10/16 06:45:05;;;;;;;22.50;13.90;;;;;;;6.50;73.44;102285.92;105788;1266;57439;-76
2022/10/16 06:47:34;;;;;;;26.10;14.90;;;;;;;6.58;72.43;102284.63;105652;1270;58942;-74
2022/10/16 06:50:06;;;;;;;26.60;14.80;;;;;;;6.68;71.90;102281.55;105675;1263;72571;-74
2022/10/16 06:52:35;;;;;;;23.00;13.60;;;;;;;6.78;71.58;102284.16;105663;1267;60657;-73
2022/10/16 06:55:05;;;;;;;44.40;21.40;;;;;;;6.92;71.35;102286.32;105664;1272;68575;-72
2022/10/16 06:57:34;;;;;;;27.20;16.50;;;;;;;7.07;71.34;102288.09;105584;1263;73709;-73
2022/10/16 07:00:06;;;;;;;26.70;14.20;;;;;;;7.22;70.72;102285.20;105607;1262;62154;-72
2022/10/16 07:02:35;;;;;;;22.20;13.00;;;;;;;7.37;69.54;102281.70;105576;1272;59006;-77
2022/10/16 07:05:05;;;;;;;27.50;13.40;;;;;;;7.56;69.18;102281.39;105389;1270;73511;-75
